createdAt,value
2022-07-27T00:01:21.077Z,0.98
2022-07-27T00:03:51.043Z,0.70
2022-07-27T00:06:18.153Z,0.70
2022-07-27T00:08:47.763Z,0.60
2022-07-27T00:11:16.364Z,0.60
2022-07-27T00:13:44.960Z,0.57
2022-07-27T00:16:14.670Z,0.65
2022-07-27T00:18:44.709Z,0.65
2022-07-27T00:21:12.749Z,0.60
2022-07-27T00:23:42.368Z,0.50
2022-07-27T00:26:10.953Z,0.52
2022-07-27T00:28:38.543Z,0.88
2022-07-27T00:31:07.176Z,0.60
2022-07-27T00:33:34.715Z,0.60
2022-07-27T00:36:05.033Z,0.50
2022-07-27T00:38:33.924Z,0.40
2022-07-27T00:41:01.523Z,0.60
2022-07-27T00:43:30.121Z,0.60
2022-07-27T00:45:58.706Z,0.50
2022-07-27T00:48:27.404Z,0.50
2022-07-27T00:50:56.907Z,0.60
2022-07-27T00:53:24.506Z,0.43
2022-07-27T00:55:55.102Z,0.50
2022-07-27T00:58:25.703Z,0.50
2022-07-27T01:00:53.300Z,0.40
2022-07-27T01:03:23.149Z,0.45
2022-07-27T01:05:51.489Z,0.50
2022-07-27T01:08:21.098Z,0.50
2022-07-27T01:10:50.725Z,0.50
2022-07-27T01:13:19.281Z,0.50
2022-07-27T01:15:46.971Z,0.50
2022-07-27T01:18:29.557Z,0.45
2022-07-27T01:23:29.728Z,0.52
2022-07-27T01:25:57.392Z,0.60
2022-07-27T01:28:27.940Z,0.30
2022-07-27T01:30:57.561Z,0.40
2022-07-27T01:33:32.185Z,0.50
2022-07-27T01:36:01.745Z,0.43
2022-07-27T01:38:34.537Z,0.68
2022-07-27T01:41:04.660Z,0.47
2022-07-27T01:43:33.560Z,0.70
2022-07-27T01:46:07.108Z,0.65
2022-07-27T01:48:34.874Z,0.88
2022-07-27T01:51:02.364Z,0.50
2022-07-27T01:53:32.781Z,0.85
2022-07-27T01:56:00.584Z,0.47
2022-07-27T01:58:31.185Z,0.75
2022-07-27T02:00:59.800Z,0.60
2022-07-27T02:03:28.369Z,0.50
2022-07-27T02:05:57.976Z,0.47
2022-07-27T02:08:26.566Z,0.70
2022-07-27T02:11:17.249Z,0.50
2022-07-27T02:13:45.881Z,0.90
2022-07-27T02:16:17.387Z,0.50
2022-07-27T02:18:48.851Z,0.73
2022-07-27T02:21:17.677Z,0.50
2022-07-27T02:23:47.266Z,0.50
2022-07-27T02:26:14.847Z,0.50
2022-07-27T02:28:45.415Z,0.80
2022-07-27T02:31:14.113Z,0.60
2022-07-27T02:33:42.650Z,0.40
2022-07-27T02:36:13.350Z,1.00
2022-07-27T02:38:42.863Z,0.60
2022-07-27T02:41:11.501Z,0.50
2022-07-27T02:43:40.066Z,0.68
2022-07-27T02:46:07.738Z,0.70
2022-07-27T02:48:36.292Z,0.60
2022-07-27T02:51:04.826Z,0.50
2022-07-27T02:53:34.444Z,0.45
2022-07-27T02:56:03.028Z,0.85
2022-07-27T02:58:31.618Z,0.43
2022-07-27T03:00:59.202Z,0.68
2022-07-27T03:03:35.981Z,0.60
2022-07-27T03:06:09.453Z,0.50
2022-07-27T03:08:38.058Z,0.50
2022-07-27T03:11:08.673Z,0.95
2022-07-27T06:07:15.628Z,1.05
2022-07-27T06:09:43.089Z,1.05
2022-07-27T06:12:10.514Z,1.60
2022-07-27T06:14:51.008Z,1.38
2022-07-27T06:17:29.970Z,1.27
2022-07-27T06:20:04.298Z,1.30
2022-07-27T06:22:33.879Z,1.55
2022-07-27T06:25:01.457Z,0.95
2022-07-27T06:32:01.538Z,1.33
2022-07-27T06:34:23.712Z,1.40
2022-07-27T06:36:55.325Z,1.35
2022-07-27T06:39:24.944Z,1.10
2022-07-27T06:41:57.747Z,1.83
2022-07-27T06:44:27.138Z,1.23
2022-07-27T06:46:54.784Z,1.23
2022-07-27T06:49:22.366Z,1.40
2022-07-27T06:51:50.943Z,1.20
2022-07-27T06:54:19.535Z,1.30
2022-07-27T06:56:47.708Z,1.10
2022-07-27T06:59:16.004Z,1.60
2022-07-27T07:01:48.657Z,1.85
2022-07-27T07:04:16.993Z,2.03
2022-07-27T07:06:51.546Z,1.42
2022-07-27T07:09:21.021Z,1.02
2022-07-27T07:11:49.772Z,1.27
2022-07-27T07:14:18.360Z,1.38
2022-07-27T07:16:47.271Z,1.13
2022-07-27T07:19:17.549Z,1.50
2022-07-27T07:21:45.154Z,1.38
2022-07-27T07:24:15.744Z,0.90
2022-07-27T07:26:43.333Z,1.30
2022-07-27T07:29:11.139Z,1.15
2022-07-27T07:31:40.651Z,1.33
2022-07-27T07:34:09.132Z,1.60
2022-07-27T07:36:38.741Z,1.40
2022-07-27T07:39:07.365Z,1.40
2022-07-27T07:41:36.938Z,1.65
2022-07-27T07:44:06.592Z,1.10
2022-07-27T07:46:35.206Z,1.23
2022-07-27T07:49:03.247Z,1.50
2022-07-27T07:51:57.776Z,1.10
2022-07-27T07:54:28.098Z,1.23
2022-07-27T07:57:17.386Z,1.23
2022-07-27T08:00:36.514Z,1.20
2022-07-27T10:54:26.886Z,1.20
2022-07-27T12:01:52.299Z,0.80
2022-07-27T12:04:28.865Z,1.00
2022-07-27T12:07:15.811Z,1.08
2022-07-27T12:09:50.140Z,1.13
2022-07-27T12:12:34.743Z,1.00
2022-07-27T12:18:09.141Z,0.90
2022-07-27T12:20:57.856Z,1.23
2022-07-27T12:23:33.890Z,0.80
2022-07-27T12:29:12.211Z,1.33
2022-07-27T12:31:50.424Z,0.93
2022-07-27T12:34:18.618Z,0.90
2022-07-27T12:36:47.609Z,1.30
2022-07-27T12:39:30.259Z,1.95
2022-07-27T12:42:08.908Z,1.05
2022-07-27T12:44:39.492Z,1.25
2022-07-27T12:47:32.205Z,0.90
2022-07-27T12:50:31.914Z,0.65
2022-07-27T12:53:01.523Z,0.88
2022-07-27T12:55:29.093Z,0.80
2022-07-27T12:57:57.215Z,1.40
2022-07-27T13:00:32.851Z,0.80
2022-07-27T13:03:03.037Z,1.00
2022-07-27T13:05:32.567Z,1.33
2022-07-27T15:15:08.774Z,0.73
2022-07-27T15:21:43.933Z,0.90
2022-07-27T15:31:21.683Z,0.60
2022-07-27T15:33:50.709Z,0.80
2022-07-27T15:36:32.394Z,0.70
2022-07-27T15:39:04.407Z,1.25
2022-07-27T15:42:13.626Z,0.65
2022-07-27T15:45:50.546Z,0.90
2022-07-27T15:52:09.274Z,1.58
2022-07-27T15:55:02.882Z,0.60
2022-07-27T19:16:22.741Z,0.40
2022-07-27T19:18:54.221Z,1.27
2022-07-27T19:21:26.785Z,0.30
2022-07-27T19:23:55.365Z,0.45
2022-07-27T19:26:24.147Z,0.50
2022-07-27T19:28:54.498Z,0.40
2022-07-27T19:31:26.246Z,0.30
2022-07-27T19:33:57.934Z,0.30
2022-07-27T19:36:27.986Z,0.30
2022-07-27T19:39:03.029Z,0.47
2022-07-27T19:41:35.644Z,0.40
2022-07-27T19:44:05.222Z,0.45
2022-07-27T19:46:35.886Z,0.40
2022-07-27T19:49:04.514Z,0.40
2022-07-27T19:51:34.365Z,0.40
2022-07-27T19:54:03.649Z,0.40
2022-07-27T19:56:37.197Z,0.52
2022-07-27T19:59:05.823Z,0.52
2022-07-27T20:01:34.499Z,0.30
2022-07-27T20:04:07.069Z,0.38
2022-07-27T20:06:36.632Z,0.28
2022-07-27T20:09:07.245Z,0.50
2022-07-27T20:11:34.824Z,0.40
2022-07-27T20:14:03.424Z,0.65
2022-07-27T20:16:33.067Z,0.63
2022-07-27T20:19:01.611Z,0.38
2022-07-27T20:21:31.213Z,0.35
2022-07-27T20:24:02.878Z,0.40
2022-07-27T20:26:34.982Z,0.30
2022-07-27T20:29:04.060Z,0.30
2022-07-27T20:31:32.628Z,0.30
2022-07-27T20:34:02.621Z,0.45
2022-07-27T20:36:30.841Z,0.40
2022-07-27T20:39:03.301Z,0.50
2022-07-27T20:41:35.066Z,0.40
2022-07-27T20:44:03.676Z,0.30
2022-07-27T20:46:31.297Z,0.35
2022-07-27T20:49:03.916Z,0.30
2022-07-27T20:51:32.476Z,0.40
2022-07-27T20:54:01.052Z,0.45
2022-07-27T20:56:29.663Z,0.50
2022-07-27T20:59:01.294Z,0.40
2022-07-27T21:01:29.929Z,0.50
2022-07-27T21:03:57.464Z,0.57
2022-07-27T21:06:27.054Z,0.40
2022-07-27T21:08:55.668Z,0.40
2022-07-27T21:11:23.243Z,0.47
2022-07-27T21:13:52.851Z,0.45
2022-07-27T21:16:20.521Z,0.38
2022-07-27T21:18:49.047Z,0.40
2022-07-27T21:21:19.499Z,0.50
2022-07-27T21:24:09.330Z,0.60
2022-07-27T21:26:37.111Z,0.70
2022-07-27T21:29:06.537Z,0.45
2022-07-27T21:31:38.127Z,0.50
2022-07-27T21:34:09.979Z,0.55
2022-07-27T21:36:38.325Z,0.70
2022-07-27T21:39:05.966Z,0.80
2022-07-27T21:41:33.534Z,0.40
2022-07-27T21:44:01.117Z,0.50
2022-07-27T21:46:29.750Z,0.50
2022-07-27T21:48:58.359Z,0.65
2022-07-27T21:51:27.897Z,0.60
2022-07-27T21:53:55.492Z,0.40
2022-07-27T21:56:23.081Z,0.57
2022-07-27T21:58:51.684Z,0.50
2022-07-27T22:01:20.309Z,0.60
2022-07-27T22:03:47.911Z,0.63
2022-07-27T22:06:15.458Z,0.50
2022-07-27T22:08:43.047Z,0.50
2022-07-27T22:11:11.641Z,0.30
2022-07-27T22:13:40.248Z,0.50
2022-07-27T22:16:10.909Z,0.63
2022-07-27T22:18:38.438Z,0.70
2022-07-27T22:21:07.019Z,0.70
2022-07-27T22:23:36.573Z,0.40
2022-07-27T22:26:05.230Z,0.50
2022-07-27T22:28:32.939Z,0.57
2022-07-27T22:31:21.780Z,0.70
2022-07-27T22:33:50.215Z,0.52
2022-07-27T22:36:17.678Z,0.40
2022-07-27T22:38:45.295Z,0.75
2022-07-27T22:41:12.879Z,0.65
2022-07-27T22:43:40.438Z,0.50
2022-07-27T22:46:08.111Z,0.50
2022-07-27T22:48:36.713Z,0.70
2022-07-27T22:51:05.255Z,0.50
2022-07-27T22:53:34.841Z,0.50
2022-07-27T22:56:03.431Z,0.60
2022-07-27T22:58:31.028Z,0.60
2022-07-27T23:01:01.790Z,0.70
2022-07-27T23:03:31.237Z,0.80
2022-07-27T23:05:59.832Z,0.60
2022-07-27T23:08:28.424Z,0.50
2022-07-27T23:10:55.997Z,0.80
2022-07-27T23:13:24.595Z,0.80
2022-07-27T23:15:54.209Z,0.60
2022-07-27T23:18:23.792Z,0.50
2022-07-27T23:20:51.380Z,0.70
2022-07-27T23:23:20.018Z,0.70
2022-07-27T23:25:51.026Z,1.35
2022-07-27T23:28:18.654Z,0.90
2022-07-27T23:30:47.792Z,1.00
2022-07-27T23:33:15.379Z,0.75
2022-07-27T23:35:43.981Z,0.75
2022-07-27T23:38:13.580Z,0.90
2022-07-27T23:40:42.178Z,0.80
2022-07-27T23:43:09.760Z,0.70
2022-07-27T23:45:38.357Z,0.73
2022-07-27T23:48:06.940Z,0.80
2022-07-27T23:50:34.551Z,0.82
2022-07-27T23:53:03.142Z,0.98
2022-07-27T23:55:30.741Z,0.90
2022-07-27T23:57:58.320Z,1.05
